createdAt,value
2019-03-19T00:00:23.201Z,3.35
2019-03-19T00:02:51.963Z,3.42
2019-03-19T00:05:22.645Z,3.08
2019-03-19T00:07:51.114Z,3.47
2019-03-19T00:10:19.865Z,3.35
2019-03-19T00:12:48.692Z,3.20
2019-03-19T00:15:17.495Z,3.30
2019-03-19T00:17:46.338Z,3.50
2019-03-19T00:20:15.966Z,3.52
2019-03-19T00:22:46.122Z,3.35
2019-03-19T00:25:14.850Z,3.58
2019-03-19T00:27:43.621Z,3.85
2019-03-19T00:30:14.498Z,3.87
2019-03-19T00:32:43.249Z,3.70
2019-03-19T00:35:12.209Z,3.80
2019-03-19T00:37:41.032Z,3.98
2019-03-19T00:40:13.882Z,4.00
2019-03-19T00:42:42.710Z,3.85
2019-03-19T00:45:15.318Z,3.62
2019-03-19T00:47:44.083Z,3.35
2019-03-19T00:50:14.150Z,3.90
2019-03-19T00:52:42.885Z,4.10
2019-03-19T00:55:12.743Z,4.50
2019-03-19T00:57:41.461Z,4.43
2019-03-19T01:00:15.405Z,3.90
2019-03-19T01:02:45.764Z,4.00
2019-03-19T01:05:14.639Z,3.85
2019-03-19T01:07:43.461Z,3.90
2019-03-19T01:10:17.472Z,3.70
2019-03-19T01:12:45.876Z,4.20
2019-03-19T01:15:15.168Z,4.20
2019-03-19T01:17:43.961Z,3.92
2019-03-19T01:20:16.509Z,4.60
2019-03-19T01:22:45.267Z,4.40
2019-03-19T01:25:14.584Z,4.00
2019-03-19T01:27:43.429Z,3.92
2019-03-19T01:30:14.285Z,4.90
2019-03-19T01:32:43.074Z,4.55
2019-03-19T01:35:11.805Z,4.50
2019-03-19T01:37:40.649Z,4.33
2019-03-19T01:40:13.020Z,4.33
2019-03-19T01:42:41.784Z,4.33
2019-03-19T01:45:14.145Z,4.28
2019-03-19T01:47:42.903Z,4.60
2019-03-19T01:50:16.035Z,4.47
2019-03-19T01:52:44.889Z,4.12
2019-03-19T01:55:14.617Z,4.30
2019-03-19T01:57:43.448Z,5.10
2019-03-19T02:00:17.109Z,4.35
2019-03-19T02:02:45.867Z,4.80
2019-03-19T02:05:16.388Z,4.65
2019-03-19T02:07:45.100Z,4.67
2019-03-19T02:10:14.733Z,4.45
2019-03-19T02:12:43.662Z,4.25
2019-03-19T02:15:17.152Z,4.50
2019-03-19T02:17:45.889Z,4.47
2019-03-19T02:20:15.753Z,4.87
2019-03-19T02:22:44.533Z,4.72
2019-03-19T02:25:13.302Z,4.55
2019-03-19T02:27:42.100Z,4.50
2019-03-19T02:30:15.934Z,4.58
2019-03-19T02:32:44.779Z,5.07
2019-03-19T02:35:13.558Z,4.33
2019-03-19T02:37:42.268Z,4.33
2019-03-19T02:40:15.446Z,4.10
2019-03-19T02:42:44.427Z,4.70
2019-03-19T02:45:15.108Z,4.45
2019-03-19T02:47:43.899Z,4.63
2019-03-19T02:50:15.055Z,5.03
2019-03-19T02:52:43.815Z,4.65
2019-03-19T02:55:12.646Z,4.65
2019-03-19T02:57:41.491Z,4.70
2019-03-19T03:00:20.522Z,5.30
2019-03-19T03:02:49.281Z,4.22
2019-03-19T03:05:22.716Z,4.97
2019-03-19T03:07:51.491Z,4.50
2019-03-19T03:10:20.281Z,5.20
2019-03-19T03:12:49.082Z,4.50
2019-03-19T03:15:17.926Z,4.60
2019-03-19T03:17:46.692Z,4.50
2019-03-19T03:20:16.298Z,4.58
2019-03-19T03:23:11.576Z,4.72
2019-03-19T03:25:40.317Z,4.05
2019-03-19T03:28:09.069Z,4.17
2019-03-19T03:30:37.873Z,4.67
2019-03-19T03:33:06.657Z,4.25
2019-03-19T03:35:35.377Z,4.10
2019-03-19T03:38:04.181Z,4.27
2019-03-19T03:40:32.905Z,4.20
2019-03-19T03:43:01.698Z,3.90
2019-03-19T03:45:30.514Z,4.47
2019-03-19T03:47:59.257Z,3.95
2019-03-19T03:50:27.997Z,4.10
2019-03-19T03:52:59.917Z,4.10
2019-03-19T03:55:31.119Z,3.85
2019-03-19T03:57:59.092Z,4.30
2019-03-19T04:00:27.816Z,4.65
2019-03-19T04:02:56.633Z,4.20
2019-03-19T04:05:25.401Z,4.70
2019-03-19T04:07:54.132Z,4.62
2019-03-19T04:10:22.934Z,5.05
2019-03-19T04:12:51.657Z,4.87
2019-03-19T04:15:20.414Z,5.40
2019-03-19T04:17:49.142Z,5.20
2019-03-19T04:20:18.230Z,5.80
2019-03-19T04:22:47.211Z,5.47
2019-03-19T04:25:15.924Z,5.15
2019-03-19T04:27:44.686Z,5.35
2019-03-19T04:30:18.085Z,5.65
2019-03-19T04:32:46.939Z,5.92
2019-03-19T04:35:15.651Z,6.05
2019-03-19T04:37:44.483Z,5.33
2019-03-19T04:40:16.554Z,5.80
2019-03-19T04:42:45.462Z,5.80
2019-03-19T04:45:17.401Z,5.70
2019-03-19T04:47:46.222Z,6.67
2019-03-19T04:50:15.846Z,6.50
2019-03-19T04:52:44.740Z,6.37
2019-03-19T04:55:14.536Z,6.62
2019-03-19T04:57:43.301Z,6.75
2019-03-19T05:00:16.929Z,6.47
2019-03-19T05:02:45.695Z,6.60
2019-03-19T05:05:14.653Z,6.75
2019-03-19T05:07:43.389Z,7.20
2019-03-19T05:10:14.122Z,7.30
2019-03-19T05:12:42.836Z,7.15
2019-03-19T05:15:11.893Z,7.37
2019-03-19T05:17:40.623Z,7.53
2019-03-19T05:20:17.123Z,7.62
2019-03-19T05:22:45.865Z,7.87
2019-03-19T05:25:16.341Z,7.75
2019-03-19T05:27:45.143Z,7.95
2019-03-19T05:30:15.336Z,8.53
2019-03-19T05:32:44.063Z,7.50
2019-03-19T05:35:12.830Z,7.80
2019-03-19T05:37:41.554Z,8.13
2019-03-19T05:40:12.357Z,8.65
2019-03-19T05:42:41.127Z,8.80
2019-03-19T05:45:11.632Z,7.92
2019-03-19T05:47:40.877Z,7.97
2019-03-19T05:50:15.103Z,8.23
2019-03-19T05:52:43.849Z,8.08
2019-03-19T05:55:12.669Z,8.20
2019-03-19T05:57:49.335Z,7.70
2019-03-19T06:00:15.750Z,8.40
2019-03-19T06:02:44.577Z,9.03
2019-03-19T06:05:13.309Z,8.38
2019-03-19T06:07:43.737Z,9.20
2019-03-19T06:10:13.525Z,8.40
2019-03-19T06:12:42.657Z,9.20
2019-03-19T06:15:18.108Z,9.20
2019-03-19T06:17:48.330Z,9.73
2019-03-19T06:20:18.493Z,8.78
2019-03-19T06:22:47.262Z,9.28
2019-03-19T06:25:16.113Z,9.85
2019-03-19T06:27:44.873Z,9.55
2019-03-19T06:30:19.417Z,9.60
2019-03-19T06:32:48.179Z,9.73
2019-03-19T06:35:17.320Z,9.78
2019-03-19T06:37:46.159Z,9.78
2019-03-19T06:40:16.029Z,10.03
2019-03-19T06:42:44.870Z,9.53
2019-03-19T06:45:19.033Z,9.88
2019-03-19T06:47:47.871Z,9.37
2019-03-19T06:50:20.220Z,9.50
2019-03-19T06:52:48.957Z,10.15
2019-03-19T06:55:19.690Z,9.43
2019-03-19T06:57:48.427Z,10.25
2019-03-19T07:00:23.782Z,10.18
2019-03-19T07:02:52.888Z,9.20
2019-03-19T07:05:22.062Z,10.25
2019-03-19T07:07:50.839Z,10.10
2019-03-19T07:10:20.451Z,9.78
2019-03-19T07:12:49.189Z,10.40
2019-03-19T07:15:20.065Z,10.32
2019-03-19T07:17:48.831Z,10.75
2019-03-19T07:20:22.185Z,10.90
2019-03-19T07:22:51.150Z,11.10
2019-03-19T07:25:19.887Z,11.00
2019-03-19T07:27:48.655Z,11.30
2019-03-19T07:30:19.360Z,10.48
2019-03-19T07:32:48.229Z,10.90
2019-03-19T07:35:17.202Z,10.88
2019-03-19T07:37:46.040Z,10.88
2019-03-19T07:40:15.625Z,10.55
2019-03-19T07:42:44.347Z,10.55
2019-03-19T07:45:26.204Z,11.15
2019-03-19T07:47:54.970Z,10.40
2019-03-19T07:50:24.409Z,10.47
2019-03-19T07:52:53.577Z,10.50
2019-03-19T07:55:22.553Z,11.20
2019-03-19T07:57:51.377Z,9.65
2019-03-19T08:00:22.105Z,10.60
2019-03-19T08:02:50.845Z,10.70
2019-03-19T08:06:17.950Z,10.63
2019-03-19T08:08:46.773Z,9.83
2019-03-19T08:11:16.710Z,8.63
2019-03-19T08:13:45.679Z,9.20
2019-03-19T08:16:14.502Z,9.83
2019-03-19T08:18:43.242Z,10.48
2019-03-19T08:21:12.105Z,10.65
2019-03-19T08:23:40.893Z,10.43
2019-03-19T08:26:09.666Z,9.73
2019-03-19T08:28:38.402Z,10.13
2019-03-19T08:31:07.181Z,10.80
2019-03-19T08:33:36.008Z,10.40
2019-03-19T08:36:09.355Z,10.93
2019-03-19T08:38:35.212Z,10.03
2019-03-19T08:41:04.961Z,8.60
2019-03-19T08:43:33.721Z,9.78
2019-03-19T08:46:02.553Z,9.40
2019-03-19T08:48:31.352Z,9.33
2019-03-19T08:51:00.113Z,9.40
2019-03-19T08:53:28.854Z,9.13
2019-03-19T08:55:57.585Z,9.98
2019-03-19T08:58:26.419Z,10.13
2019-03-19T09:00:56.869Z,10.20
2019-03-19T09:03:25.630Z,9.60
2019-03-19T09:05:54.374Z,9.33
2019-03-19T09:08:23.165Z,9.25
2019-03-19T09:10:51.901Z,9.35
2019-03-19T09:13:20.669Z,9.40
2019-03-19T09:15:49.413Z,8.80
2019-03-19T09:18:18.174Z,8.83
2019-03-19T09:20:47.006Z,9.38
2019-03-19T09:23:15.778Z,9.30
2019-03-19T09:25:44.510Z,9.05
2019-03-19T09:28:13.275Z,10.15
2019-03-19T09:30:42.021Z,11.00
2019-03-19T09:33:10.885Z,9.80
2019-03-19T09:35:39.663Z,10.32
2019-03-19T09:38:08.490Z,10.30
2019-03-19T09:40:37.261Z,10.50
2019-03-19T09:43:06.000Z,10.32
2019-03-19T09:45:34.777Z,10.18
2019-03-19T09:48:03.586Z,10.93
2019-03-19T09:50:32.357Z,10.40
2019-03-19T09:53:01.097Z,10.20
2019-03-19T09:55:29.934Z,9.78
2019-03-19T09:57:58.666Z,9.77
2019-03-19T10:00:27.443Z,8.93
2019-03-19T10:02:56.173Z,9.15
2019-03-19T10:05:24.976Z,9.83
2019-03-19T10:07:55.534Z,9.13
2019-03-19T10:10:24.771Z,9.05
2019-03-19T10:12:53.651Z,6.87
2019-03-19T10:15:22.488Z,8.38
2019-03-19T10:17:51.303Z,8.45
2019-03-19T10:20:22.973Z,8.05
2019-03-19T10:22:51.729Z,7.03
2019-03-19T10:25:20.466Z,6.70
2019-03-19T10:27:49.292Z,6.78
2019-03-19T10:30:21.765Z,6.80
2019-03-19T10:32:50.668Z,6.65
2019-03-19T10:35:19.699Z,5.90
2019-03-19T10:37:48.470Z,4.58
2019-03-19T10:40:20.593Z,4.33
2019-03-19T10:42:49.556Z,5.40
2019-03-19T10:45:23.742Z,5.53
2019-03-19T10:47:52.604Z,5.50
2019-03-19T10:50:22.301Z,5.45
2019-03-19T10:52:51.261Z,5.05
2019-03-19T10:55:20.094Z,5.45
2019-03-19T10:57:48.885Z,5.67
2019-03-19T11:00:22.226Z,6.67
2019-03-19T11:02:51.397Z,5.42
2019-03-19T11:05:20.829Z,5.42
2019-03-19T11:07:49.665Z,4.60
2019-03-19T11:10:19.130Z,4.85
2019-03-19T11:12:47.853Z,4.60
2019-03-19T11:15:20.328Z,3.12
2019-03-19T11:17:49.066Z,3.40
2019-03-19T11:20:18.830Z,3.55
2019-03-19T11:22:47.701Z,4.03
2019-03-19T11:25:29.318Z,3.85
2019-03-19T11:27:58.158Z,3.60
2019-03-19T11:30:28.721Z,3.60
2019-03-19T11:32:57.477Z,2.95
2019-03-19T11:35:26.309Z,3.50
2019-03-19T11:37:55.042Z,3.70
2019-03-19T11:40:25.898Z,4.20
2019-03-19T11:42:54.180Z,4.20
2019-03-19T11:45:25.929Z,3.90
2019-03-19T11:47:54.742Z,4.30
2019-03-19T11:50:27.832Z,3.50
2019-03-19T11:52:56.566Z,3.80
2019-03-19T11:55:25.304Z,3.98
2019-03-19T11:57:54.267Z,4.45
2019-03-19T12:00:32.482Z,4.20
2019-03-19T12:03:12.256Z,5.25
2019-03-19T12:05:31.626Z,5.30
2019-03-19T12:08:00.376Z,5.75
2019-03-19T12:10:29.116Z,5.70
2019-03-19T12:12:57.950Z,4.65
2019-03-19T12:15:26.730Z,3.75
2019-03-19T12:17:55.489Z,3.65
2019-03-19T12:20:24.218Z,3.25
2019-03-19T12:22:52.984Z,2.92
2019-03-19T12:25:21.715Z,2.90
2019-03-19T12:27:50.502Z,2.90
2019-03-19T12:30:26.136Z,3.30
2019-03-19T12:32:53.795Z,3.12
2019-03-19T12:35:22.656Z,2.80
2019-03-19T12:37:51.490Z,2.72
2019-03-19T12:40:24.181Z,3.20
2019-03-19T12:42:52.918Z,2.10
2019-03-19T12:45:22.787Z,2.60
2019-03-19T12:47:51.510Z,2.50
2019-03-19T12:50:21.281Z,2.52
2019-03-19T12:52:50.034Z,2.62
2019-03-19T12:55:18.878Z,2.60
2019-03-19T12:57:48.135Z,2.55
2019-03-19T13:00:34.325Z,2.80
2019-03-19T13:02:56.709Z,2.70
2019-03-19T13:05:25.541Z,3.02
2019-03-19T13:07:54.278Z,2.98
2019-03-19T13:10:23.878Z,3.20
2019-03-19T13:12:52.610Z,3.00
2019-03-19T13:15:22.265Z,3.52
2019-03-19T13:17:51.117Z,3.50
2019-03-19T13:20:23.885Z,3.33
2019-03-19T13:22:52.654Z,3.33
2019-03-19T13:25:25.259Z,3.40
2019-03-19T13:27:54.131Z,3.70
2019-03-19T13:30:30.029Z,3.70
2019-03-19T13:32:58.819Z,3.20
2019-03-19T13:35:27.554Z,3.10
2019-03-19T13:37:57.010Z,3.20
2019-03-19T13:40:25.746Z,3.27
2019-03-19T13:42:54.584Z,3.50
2019-03-19T13:45:24.126Z,3.08
2019-03-19T13:47:52.980Z,2.98
2019-03-19T13:50:23.288Z,3.15
2019-03-19T13:52:52.002Z,3.17
2019-03-19T13:55:21.727Z,3.23
2019-03-19T13:57:50.561Z,3.47
2019-03-19T14:00:19.929Z,3.10
2019-03-19T14:02:48.670Z,3.00
2019-03-19T14:05:18.029Z,3.20
2019-03-19T14:07:46.763Z,3.55
2019-03-19T14:10:16.797Z,2.85
2019-03-19T14:12:47.458Z,3.12
2019-03-19T14:15:22.070Z,2.90
2019-03-19T14:17:51.445Z,2.83
2019-03-19T14:20:20.195Z,2.70
2019-03-19T14:22:49.130Z,3.10
2019-03-19T14:25:18.587Z,2.90
2019-03-19T14:27:47.274Z,3.12
2019-03-19T14:30:23.030Z,3.40
2019-03-19T14:32:51.806Z,3.40
2019-03-19T14:35:20.634Z,4.00
2019-03-19T14:37:49.524Z,3.17
2019-03-19T14:40:19.152Z,3.30
2019-03-19T14:42:47.990Z,3.95
2019-03-19T14:45:17.788Z,3.55
2019-03-19T14:47:46.847Z,3.37
2019-03-19T14:50:20.501Z,3.47
2019-03-19T14:52:49.310Z,3.58
2019-03-19T14:55:18.041Z,3.30
2019-03-19T14:57:46.801Z,3.10
2019-03-19T15:00:20.246Z,3.37
2019-03-19T15:02:49.010Z,2.80
2019-03-19T15:05:17.813Z,3.50
2019-03-19T15:07:46.574Z,3.30
2019-03-19T15:10:19.449Z,3.58
2019-03-19T15:12:48.320Z,3.58
2019-03-19T15:15:19.122Z,4.10
2019-03-19T15:17:47.877Z,3.85
2019-03-19T15:20:22.438Z,3.87
2019-03-19T15:22:51.281Z,4.10
2019-03-19T15:25:20.131Z,3.80
2019-03-19T15:27:48.929Z,3.72
2019-03-19T15:30:18.502Z,3.90
2019-03-19T15:32:47.521Z,4.12
2019-03-19T15:35:16.283Z,4.50
2019-03-19T15:37:45.023Z,4.62
2019-03-19T15:40:15.344Z,4.10
2019-03-19T15:42:44.017Z,4.37
2019-03-19T15:45:18.809Z,3.92
2019-03-19T15:47:47.557Z,4.30
2019-03-19T15:50:18.634Z,4.00
2019-03-19T15:52:47.150Z,3.95
2019-03-19T15:55:16.010Z,4.00
2019-03-19T15:57:44.884Z,3.47
2019-03-19T16:00:16.026Z,3.98
2019-03-19T16:02:44.821Z,4.30
2019-03-19T16:05:14.148Z,3.80
2019-03-19T16:07:44.429Z,3.90
2019-03-19T16:10:14.397Z,3.85
2019-03-19T16:12:43.165Z,4.10
2019-03-19T16:15:13.869Z,4.40
2019-03-19T16:17:42.824Z,3.67
2019-03-19T16:20:13.526Z,3.70
2019-03-19T16:22:42.441Z,3.98
2019-03-19T16:25:12.965Z,3.42
2019-03-19T16:27:41.863Z,3.60
2019-03-19T16:30:13.605Z,4.17
2019-03-19T16:32:42.500Z,4.42
2019-03-19T16:35:11.905Z,4.10
2019-03-19T16:37:40.767Z,4.00
2019-03-19T16:40:12.846Z,4.20
2019-03-19T16:42:41.613Z,3.80
2019-03-19T16:45:11.477Z,3.58
2019-03-19T16:47:40.216Z,3.47
2019-03-19T16:50:19.848Z,4.40
2019-03-19T16:52:48.610Z,4.45
2019-03-19T16:55:19.306Z,4.42
2019-03-19T16:57:48.133Z,3.98
2019-03-19T17:00:25.586Z,4.25
2019-03-19T17:02:55.816Z,3.77
2019-03-19T17:05:24.698Z,3.98
2019-03-19T17:07:53.431Z,4.35
2019-03-19T17:10:26.394Z,4.40
2019-03-19T17:12:55.194Z,4.50
2019-03-19T17:15:24.056Z,4.28
2019-03-19T17:17:52.862Z,4.30
2019-03-19T17:20:21.694Z,3.90
2019-03-19T17:22:50.518Z,4.45
2019-03-19T17:25:21.280Z,4.20
2019-03-19T17:27:49.973Z,3.90
2019-03-19T17:30:24.432Z,3.72
2019-03-19T17:32:53.262Z,3.70
2019-03-19T17:35:22.708Z,4.00
2019-03-19T17:37:51.452Z,3.60
2019-03-19T17:40:20.285Z,4.47
2019-03-19T17:42:49.044Z,4.10
2019-03-19T17:45:18.169Z,4.40
2019-03-19T17:47:46.926Z,4.07
2019-03-19T17:50:30.459Z,4.12
2019-03-19T17:52:59.219Z,4.15
2019-03-19T17:55:27.969Z,4.10
2019-03-19T17:57:56.726Z,4.60
2019-03-19T18:00:27.101Z,4.55
2019-03-19T18:02:55.874Z,4.17
2019-03-19T18:05:24.677Z,3.90
2019-03-19T18:07:53.486Z,4.25
2019-03-19T18:10:22.274Z,3.75
2019-03-19T18:12:51.002Z,4.10
2019-03-19T18:15:20.266Z,3.92
2019-03-19T18:17:50.342Z,3.92
2019-03-19T18:20:19.429Z,3.47
2019-03-19T18:22:48.154Z,3.87
2019-03-19T18:25:21.238Z,4.00
2019-03-19T18:27:49.964Z,4.10
2019-03-19T18:30:19.805Z,3.67
2019-03-19T18:32:48.609Z,3.85
2019-03-19T18:35:17.420Z,3.75
2019-03-19T18:37:46.154Z,4.10
2019-03-19T18:40:16.006Z,3.72
2019-03-19T18:42:45.399Z,3.90
2019-03-19T18:45:18.977Z,4.35
2019-03-19T18:47:50.019Z,4.35
2019-03-19T18:50:22.352Z,4.30
2019-03-19T18:52:51.095Z,4.20
2019-03-19T18:55:23.156Z,4.05
2019-03-19T18:57:53.466Z,4.50
2019-03-19T19:00:23.374Z,4.20
2019-03-19T19:02:53.946Z,4.67
2019-03-19T19:05:23.872Z,4.15
2019-03-19T19:07:52.644Z,4.47
2019-03-19T19:10:21.765Z,4.30
2019-03-19T19:12:50.684Z,4.40
2019-03-19T19:15:25.612Z,4.25
2019-03-19T19:17:54.553Z,4.33
2019-03-19T19:20:25.876Z,4.33
2019-03-19T19:22:54.681Z,4.50
2019-03-19T19:25:24.713Z,4.12
2019-03-19T19:27:54.016Z,4.67
2019-03-19T19:30:31.534Z,4.07
2019-03-19T19:33:02.498Z,3.80
2019-03-19T19:35:31.210Z,4.33
2019-03-19T19:38:00.085Z,4.10
2019-03-19T19:40:28.869Z,4.35
2019-03-19T19:42:57.761Z,4.50
2019-03-19T19:45:27.235Z,4.22
2019-03-19T19:47:55.949Z,4.20
2019-03-19T19:50:24.908Z,4.40
2019-03-19T19:52:53.798Z,4.87
2019-03-19T19:55:22.544Z,5.17
2019-03-19T19:57:51.357Z,5.80
2019-03-19T20:00:23.591Z,5.65
2019-03-19T20:02:55.884Z,5.20
2019-03-19T20:05:27.847Z,5.22
2019-03-19T20:07:58.411Z,5.30
2019-03-19T20:10:32.172Z,5.35
2019-03-19T20:13:02.132Z,6.28
2019-03-19T20:15:31.593Z,5.62
2019-03-19T20:18:01.230Z,6.33
2019-03-19T20:20:32.779Z,5.50
2019-03-19T20:23:02.727Z,5.08
2019-03-19T20:25:31.805Z,5.10
2019-03-19T20:28:00.602Z,4.83
2019-03-19T20:30:29.439Z,4.45
2019-03-19T20:32:59.434Z,5.28
2019-03-19T20:35:28.166Z,5.08
2019-03-19T20:37:57.332Z,4.75
2019-03-19T20:40:27.725Z,5.05
2019-03-19T20:42:56.474Z,4.45
2019-03-19T20:45:29.433Z,5.15
2019-03-19T20:47:58.669Z,6.25
2019-03-19T20:50:30.640Z,5.40
2019-03-19T20:52:59.731Z,5.63
2019-03-19T20:55:28.775Z,5.55
2019-03-19T20:57:58.980Z,5.80
2019-03-19T21:00:28.230Z,5.15
2019-03-19T21:02:57.151Z,6.03
2019-03-19T21:05:26.150Z,5.85
2019-03-19T21:07:54.865Z,5.00
2019-03-19T21:10:24.722Z,5.00
2019-03-19T21:12:53.613Z,5.47
2019-03-19T21:15:24.517Z,5.25
2019-03-19T21:17:53.285Z,4.90
2019-03-19T21:20:22.089Z,5.08
2019-03-19T21:22:50.933Z,5.10
2019-03-19T21:25:19.697Z,5.20
2019-03-19T21:27:48.455Z,5.50
2019-03-19T21:30:21.245Z,5.30
2019-03-19T21:32:50.060Z,5.30
2019-03-19T21:35:22.525Z,4.80
2019-03-19T21:37:51.662Z,5.25
2019-03-19T21:40:20.649Z,5.78
2019-03-19T21:42:49.515Z,6.00
2019-03-19T21:45:19.531Z,5.50
2019-03-19T21:47:48.382Z,4.92
2019-03-19T21:50:21.986Z,5.87
2019-03-19T21:52:50.757Z,6.20
2019-03-19T21:55:19.563Z,6.22
2019-03-19T21:57:50.243Z,6.27
2019-03-19T22:00:22.945Z,6.40
2019-03-19T22:02:51.764Z,6.53
2019-03-19T22:05:20.509Z,6.60
2019-03-19T22:07:49.273Z,6.83
2019-03-19T22:10:21.772Z,6.45
2019-03-19T22:12:50.529Z,6.10
2019-03-19T22:15:21.703Z,6.22
2019-03-19T22:17:50.473Z,6.70
2019-03-19T22:20:19.412Z,6.20
2019-03-19T22:22:48.279Z,6.30
2019-03-19T22:25:17.082Z,6.53
2019-03-19T22:27:46.127Z,6.70
2019-03-19T22:30:19.841Z,6.65
2019-03-19T22:32:48.577Z,7.03
2019-03-19T22:35:17.347Z,7.58
2019-03-19T22:37:46.139Z,8.05
2019-03-19T22:40:18.393Z,7.80
2019-03-19T22:42:47.337Z,8.23
2019-03-19T22:45:22.908Z,7.80
2019-03-19T22:47:51.654Z,8.63
2019-03-19T22:50:20.537Z,10.25
2019-03-19T22:52:49.346Z,11.80
2019-03-19T22:55:28.622Z,12.83
2019-03-19T22:57:48.568Z,10.68
2019-03-19T23:00:29.084Z,15.55
2019-03-19T23:02:57.850Z,14.95
2019-03-19T23:05:26.610Z,19.80
2019-03-19T23:07:55.376Z,18.77
2019-03-19T23:10:24.104Z,18.30
2019-03-19T23:12:52.948Z,16.87
2019-03-19T23:15:21.792Z,16.12
2019-03-19T23:17:50.565Z,14.03
2019-03-19T23:20:19.308Z,14.95
2019-03-19T23:22:48.070Z,15.63
2019-03-19T23:25:16.807Z,15.08
2019-03-19T23:27:45.569Z,15.08
2019-03-19T23:30:16.747Z,15.10
2019-03-19T23:32:45.612Z,13.38
2019-03-19T23:35:14.358Z,12.33
2019-03-19T23:37:43.174Z,12.18
2019-03-19T23:40:13.814Z,11.30
2019-03-19T23:42:44.470Z,12.15
2019-03-19T23:45:13.756Z,12.33
2019-03-19T23:47:42.593Z,11.30
2019-03-19T23:50:13.325Z,10.98
2019-03-19T23:52:42.065Z,10.55
2019-03-19T23:55:11.231Z,10.70
2019-03-19T23:57:39.964Z,11.10
